ADDS METAR Data INFO
IDs: Format: Raw Decoded Include TAF

Data at: 2053 UTC 26 May 2017

KIAH 261953Z 17014G19KT 10SM BKN035 BKN040 32/23 A2988 RMK AO2 SLP116 T03170228
KIAH 261853Z 18011G19KT 10SM BKN035 BKN045 32/23 A2989 RMK AO2 SLP121 T03220228
KIAH 261753Z 18012G19KT 10SM BKN035 BKN045 32/22 A2990 RMK AO2 SLP125 T03170217 10317 20244 58002
KIAH 261653Z 18009KT 160V230 10SM BKN035 BKN040 31/22 A2991 RMK AO2 SLP127 T03060217
KIAH 261553Z 19014G19KT 10SM FEW025 SCT035 BKN040 30/23 A2992 RMK AO2 SLP129 T03000228
KIAH 261453Z 19010G18KT 10SM SCT021 BKN035 BKN038 28/22 A2991 RMK AO2 SLP128 T02780222 52015
KIAH 261353Z 18008KT 10SM FEW020 OVC035 26/22 A2989 RMK AO2 SLP123 T02610222
KIAH 261253Z 17006KT 10SM FEW023 OVC032 25/22 A2988 RMK AO2 SLP118 T02500217
KIAH 261215Z 17006KT 10SM OVC030 24/22 A2987 RMK AO2 T02440217
KIAH 261153Z 16008KT 10SM OVC027 24/22 A2987 RMK AO2 SLP112 T02440217 10244 20233 51016
KIAH 261053Z 16006KT 10SM OVC020 24/21 A2985 RMK AO2 SLP106 T02390211
KIAH 261043Z 16006KT 10SM BKN020 24/21 A2985 RMK AO2 T02390211
KIAH 260953Z 19005KT 10SM SCT016 24/21 A2984 RMK AO2 SLP102 T02390206
KIAH 260943Z 18007KT 10SM SCT023 24/21 A2983 RMK AO2 T02390206
KIAH 260853Z 18007KT 10SM BKN017 24/21 A2982 RMK AO2 SLP096 T02390206 53006
KIAH 260834Z 19006KT 10SM BKN018 24/20 A2982 RMK AO2 T02390200
KIAH 260753Z 17009KT 10SM SCT020 23/20 A2981 RMK AO2 SLP091 T02330200
KIAH 260653Z 18009KT 10SM FEW250 23/19 A2980 RMK AO2 SLP090 T02330194
KIAH 260553Z 16011KT 10SM FEW250 24/19 A2980 RMK AO2 SLP090 T02390194 10294 20239 403220156 50005
KIAH 260453Z 17010KT 10SM CLR 24/19 A2982 RMK AO2 SLP096 T02390189
KIAH 260353Z 17010KT 10SM CLR 24/18 A2981 RMK AO2 SLP093 T02440183
KIAH 260253Z 17012G18KT 10SM CLR 25/18 A2978 RMK AO2 SLP085 T02500178 53006
KIAH 260153Z 16013G20KT 10SM FEW300 26/17 A2977 RMK AO2 SLP080 T02610167
KIAH 260053Z 17014G19KT 10SM FEW300 28/14 A2976 RMK AO2 SLP079 T02780144
KIAH 252353Z 16013KT 10SM FEW300 29/13 A2977 RMK AO2 SLP079 T02940133 10322 20294 58003
KIAH 252253Z 18011KT 10SM FEW300 31/14 A2977 RMK AO2 SLP080 T03060139
KIAH 252153Z 18012G20KT 10SM FEW300 32/13 A2977 RMK AO2 SLP082 T03170133
KIAH 252053Z 17012G18KT 10SM FEW300 32/15 A2977 RMK AO2 SLP082 T03170150 58011
KIAH 251953Z 19011G19KT 150V210 10SM FEW300 32/16 A2978 RMK AO2 SLP086 T03220156
KIAH 251853Z 21011G18KT 10SM FEW300 32/16 A2980 RMK AO2 SLP091 T03170156
KIAH 251753Z 17013G19KT 10SM CLR 30/16 A2981 RMK AO2 SLP093 T03000156 10306 20167 58008
KIAH 251653Z 18012G19KT 10SM CLR 29/16 A2982 RMK AO2 SLP099 T02940161
KIAH 251553Z 18013G19KT 10SM CLR 29/16 A2983 RMK AO2 SLP101 T02890156
KIAH 251453Z 20012G22KT 10SM CLR 27/16 A2983 RMK AO2 SLP102 T02670156 51013
KIAH 251353Z 18007KT 10SM CLR 24/17 A2982 RMK AO2 SLP098 T02440172
KIAH 251253Z 00000KT 10SM CLR 22/17 A2981 RMK AO2 SLP095 T02170172
KIAH 251153Z 18003KT 10SM CLR 17/15 A2980 RMK AO2 SLP089 T01670150 10206 20156 53013
KIAH 251053Z 20003KT 10SM CLR 17/14 A2977 RMK AO2 SLP081 T01670139
KIAH 250953Z 15004KT 10SM CLR 18/13 A2976 RMK AO2 SLP076 T01780133


Page loaded:  20:53 UTC  |   01:53 PM Pacific  |   02:53 PM Mountain  |   03:53 PM Central  |   04:53 PM Eastern

 

ADVISORIES

FORECASTS

FORECASTS

OBSERVATIONS

USER TOOLS

ABOUT US